Time;durP1;ratioP1;P1;durP2;ratioP2;P2;SDS_P1;SDS_P2;PMS_P1;PMS_P2;Temp;Humidity;BMP_temperature;BMP_pressure;BME280_temperature;BME280_humidity;BME280_pressure;Samples;Min_cycle;Max_cycle;Signal;HPM_P1;HPM_P2
2022/04/18 00:02:07;;;;;;;1.75;1.65;;;20.20;51.40;;;;;;4996360;28;20209;-68
2022/04/18 00:04:34;;;;;;;1.52;1.40;;;20.20;51.40;;;;;;5013925;28;20184;-68
2022/04/18 00:07:04;;;;;;;2.10;1.90;;;20.20;51.40;;;;;;5013601;28;20215;-68
2022/04/18 00:09:30;;;;;;;1.80;1.70;;;20.20;51.40;;;;;;4996260;28;20216;-68
2022/04/18 00:11:57;;;;;;;2.20;1.60;;;20.20;51.40;;;;;;4996204;28;20231;-69
2022/04/18 00:14:24;;;;;;;1.75;1.55;;;20.20;51.40;;;;;;5012568;28;20649;-68
2022/04/18 00:16:50;;;;;;;2.95;1.90;;;20.20;51.40;;;;;;4995842;28;20230;-68
2022/04/18 00:19:15;;;;;;;2.63;1.73;;;20.20;51.30;;;;;;4996110;28;20204;-68
2022/04/18 00:21:41;;;;;;;2.92;1.80;;;20.20;51.20;;;;;;4996022;28;20188;-69
2022/04/18 00:24:10;;;;;;;2.28;1.85;;;20.20;51.10;;;;;;4995933;28;20339;-69
2022/04/18 00:26:39;;;;;;;2.33;2.10;;;20.20;51.10;;;;;;4995715;28;20227;-69
2022/04/18 00:29:06;;;;;;;2.90;1.88;;;20.20;51.00;;;;;;4995717;28;20184;-68
2022/04/18 00:31:32;;;;;;;2.35;2.15;;;20.20;50.90;;;;;;4995976;28;20561;-68
2022/04/18 00:33:58;;;;;;;1.80;1.48;;;20.20;51.70;;;;;;4995965;28;20224;-68
2022/04/18 00:36:24;;;;;;;2.47;1.75;;;20.10;50.80;;;;;;4995686;28;20246;-69
2022/04/18 00:38:50;;;;;;;2.25;1.77;;;20.20;50.90;;;;;;4995877;28;20184;-68
2022/04/18 00:41:16;;;;;;;1.92;1.60;;;20.10;50.80;;;;;;4995144;28;20234;-68
2022/04/18 00:43:49;;;;;;;1.75;1.65;;;20.10;51.00;;;;;;4979420;28;20242;-69
2022/04/18 00:46:19;;;;;;;2.15;1.50;;;20.10;51.00;;;;;;4995428;28;20203;-68
2022/04/18 00:48:47;;;;;;;2.17;1.60;;;20.10;51.00;;;;;;4995521;28;20184;-68
2022/04/18 00:51:22;;;;;;;2.05;1.60;;;20.10;51.00;;;;;;4995482;28;20223;-68
2022/04/18 00:53:53;;;;;;;2.20;1.92;;;20.10;51.10;;;;;;4979069;28;20179;-68
2022/04/18 00:56:20;;;;;;;2.38;1.67;;;20.10;51.10;;;;;;4995058;28;20223;-68
2022/04/18 00:58:48;;;;;;;2.08;1.88;;;20.10;51.10;;;;;;4995580;28;20198;-68
2022/04/18 01:01:15;;;;;;;1.80;1.70;;;20.10;51.10;;;;;;4995400;28;20192;-68
2022/04/18 01:03:44;;;;;;;3.10;1.90;;;20.10;51.00;;;;;;4995415;28;20271;-68
2022/04/18 01:06:11;;;;;;;2.60;1.60;;;20.20;51.00;;;;;;4995371;28;20227;-68
2022/04/18 01:08:37;;;;;;;2.08;1.75;;;20.10;51.00;;;;;;4979320;28;20188;-68
2022/04/18 01:11:09;;;;;;;1.80;1.35;;;20.10;50.80;;;;;;4995103;28;20214;-68
2022/04/18 01:13:53;;;;;;;1.80;1.48;;;20.10;50.80;;;;;;4997844;28;20242;-68
2022/04/18 01:16:38;;;;;;;2.05;1.85;;;20.10;50.70;;;;;;4997883;28;20734;-68
2022/04/18 01:19:23;;;;;;;1.65;1.40;;;20.10;50.90;;;;;;4994936;28;20560;-68
2022/04/18 01:22:22;;;;;;;2.15;1.83;;;20.10;51.00;;;;;;4999114;28;20184;-68
2022/04/18 01:30:45;;;;;;;1.60;1.50;;;20.10;50.40;;;;;;5010226;28;20766;-68
2022/04/18 01:33:11;;;;;;;1.73;1.52;;;20.10;50.80;;;;;;4982450;28;20192;-68
2022/04/18 01:35:38;;;;;;;2.05;1.60;;;20.10;50.80;;;;;;4994591;28;20217;-68
2022/04/18 01:38:07;;;;;;;1.52;1.42;;;20.10;51.00;;;;;;4978794;28;20181;-68
2022/04/18 01:40:33;;;;;;;1.52;1.42;;;20.10;50.90;;;;;;4994633;28;20184;-68
2022/04/18 01:42:59;;;;;;;1.98;1.50;;;20.10;50.80;;;;;;4994771;28;20180;-68
2022/04/18 01:45:25;;;;;;;1.65;1.55;;;20.10;50.80;;;;;;4994694;28;20208;-68
2022/04/18 01:48:07;;;;;;;1.83;1.63;;;20.10;50.90;;;;;;4996995;28;20263;-68
2022/04/18 01:50:32;;;;;;;1.55;1.45;;;20.10;50.70;;;;;;4995075;28;20310;-68
2022/04/18 01:52:58;;;;;;;1.60;1.50;;;20.10;50.70;;;;;;4998924;28;20642;-68
2022/04/18 01:55:25;;;;;;;1.63;1.50;;;20.10;50.60;;;;;;4998419;28;20203;-68
2022/04/18 01:57:56;;;;;;;1.90;1.80;;;20.10;50.60;;;;;;4998566;28;20699;-68
2022/04/18 02:00:22;;;;;;;3.00;1.90;;;20.10;50.50;;;;;;4998593;28;20184;-68
2022/04/18 02:02:48;;;;;;;2.15;1.58;;;20.10;50.40;;;;;;4998341;28;20190;-68
2022/04/18 02:05:14;;;;;;;2.30;1.52;;;20.10;50.40;;;;;;4998430;28;20211;-68
2022/04/18 02:07:40;;;;;;;1.70;1.60;;;20.10;50.40;;;;;;4998219;28;20195;-68
2022/04/18 02:10:08;;;;;;;1.80;1.70;;;20.10;50.50;;;;;;4982429;28;20218;-68
2022/04/18 02:12:35;;;;;;;1.60;1.48;;;20.10;50.60;;;;;;4998739;28;20184;-68
2022/04/18 02:15:04;;;;;;;1.67;1.50;;;20.10;51.20;;;;;;4966622;28;20188;-68
2022/04/18 02:17:36;;;;;;;2.55;1.67;;;20.00;50.60;;;;;;4998280;28;20267;-68
2022/04/18 02:20:02;;;;;;;1.55;1.45;;;20.10;51.30;;;;;;4998149;28;20310;-68
2022/04/18 02:22:30;;;;;;;1.95;1.77;;;20.10;50.70;;;;;;4998166;28;20214;-68
2022/04/18 02:25:00;;;;;;;1.98;1.70;;;20.10;50.70;;;;;;4997960;28;20216;-68
2022/04/18 02:27:26;;;;;;;1.48;1.38;;;20.10;50.70;;;;;;4982103;28;20216;-68
2022/04/18 02:29:52;;;;;;;2.05;1.85;;;20.10;50.60;;;;;;4997839;28;20215;-68
2022/04/18 02:35:05;;;;;;;2.00;1.90;;;20.10;50.60;;;;;;4992853;28;20196;-68
2022/04/18 02:37:31;;;;;;;2.05;1.85;;;20.10;50.30;;;;;;4995645;28;20189;-68
2022/04/18 02:39:59;;;;;;;2.10;1.73;;;20.10;50.20;;;;;;4978532;28;20191;-68
2022/04/18 02:42:26;;;;;;;2.10;1.90;;;20.00;50.10;;;;;;4978632;28;20189;-68
2022/04/18 02:44:52;;;;;;;2.00;1.90;;;20.00;50.00;;;;;;4978085;28;20198;-68
2022/04/18 02:47:29;;;;;;;1.65;1.42;;;20.00;50.00;;;;;;4978384;28;20267;-68
2022/04/18 02:49:55;;;;;;;1.85;1.73;;;20.00;50.30;;;;;;4978139;28;20260;-68
2022/04/18 02:52:21;;;;;;;2.40;1.67;;;20.00;50.40;;;;;;4978536;28;20181;-68
2022/04/18 02:54:48;;;;;;;2.50;1.55;;;20.00;50.30;;;;;;4978549;28;20220;-68
2022/04/18 02:57:13;;;;;;;1.60;1.50;;;20.00;50.30;;;;;;4978117;28;20232;-68
2022/04/18 02:59:40;;;;;;;1.58;1.45;;;20.00;50.40;;;;;;4978289;28;20195;-68
2022/04/18 03:02:06;;;;;;;1.60;1.50;;;20.00;50.40;;;;;;4995450;28;20209;-68
2022/04/18 03:04:32;;;;;;;1.83;1.70;;;20.00;50.30;;;;;;4977832;28;20185;-68
2022/04/18 03:06:58;;;;;;;1.70;1.60;;;20.00;50.30;;;;;;4977756;28;20220;-68
2022/04/18 03:09:24;;;;;;;1.73;1.63;;;20.00;50.30;;;;;;4977706;28;20196;-68
2022/04/18 03:11:50;;;;;;;1.77;1.67;;;20.00;50.30;;;;;;4961858;28;20197;-68
2022/04/18 03:14:17;;;;;;;2.08;1.73;;;20.00;50.40;;;;;;4977970;28;20216;-68
2022/04/18 03:16:44;;;;;;;1.67;1.58;;;20.00;50.40;;;;;;4977847;28;20208;-68
2022/04/18 03:19:10;;;;;;;2.10;1.90;;;20.00;50.20;;;;;;4977981;28;20238;-68
2022/04/18 03:21:48;;;;;;;1.90;1.80;;;20.00;50.30;;;;;;4977550;28;20191;-68
2022/04/18 03:24:14;;;;;;;2.40;2.20;;;20.10;50.20;;;;;;4961644;28;20634;-68
2022/04/18 03:26:45;;;;;;;2.08;1.90;;;20.00;50.10;;;;;;4977364;28;20216;-68
2022/04/18 03:29:15;;;;;;;1.70;1.60;;;20.00;50.00;;;;;;4977585;28;20181;-68
2022/04/18 03:31:41;;;;;;;2.33;1.55;;;20.00;50.00;;;;;;4993883;28;20184;-68
2022/04/18 03:34:09;;;;;;;1.50;1.40;;;20.00;50.00;;;;;;4994725;28;20195;-68
2022/04/18 03:39:52;;;;;;;1.65;1.55;;;20.00;50.20;;;;;;4977272;28;20177;-68
2022/04/18 03:42:11;;;;;;;1.45;1.23;;;20.00;50.20;;;;;;4962569;28;20291;-68
2022/04/18 03:44:45;;;;;;;2.65;1.70;;;20.00;50.20;;;;;;4977221;28;20273;-68
2022/04/18 03:47:12;;;;;;;2.22;1.80;;;20.00;50.10;;;;;;4977133;28;20224;-68
2022/04/18 03:49:39;;;;;;;2.17;1.88;;;20.00;50.10;;;;;;4977186;28;20209;-68
2022/04/18 03:52:06;;;;;;;1.67;1.58;;;20.00;50.00;;;;;;4977424;28;20637;-68
2022/04/18 03:54:34;;;;;;;1.95;1.77;;;20.00;49.90;;;;;;4976986;28;20312;-68
2022/04/18 03:57:04;;;;;;;2.22;1.63;;;20.00;49.90;;;;;;4976667;28;20220;-68
2022/04/18 03:59:44;;;;;;;2.10;1.70;;;20.00;49.90;;;;;;4976846;28;20177;-68
2022/04/18 04:02:10;;;;;;;2.25;1.55;;;20.00;49.90;;;;;;4976811;28;20276;-68
2022/04/18 04:04:42;;;;;;;1.90;1.55;;;20.00;49.90;;;;;;4976842;28;20192;-69
2022/04/18 04:07:08;;;;;;;1.50;1.40;;;20.00;50.10;;;;;;5041828;22;20349;-71
2022/04/18 04:09:35;;;;;;;1.63;1.52;;;20.00;50.10;;;;;;5014923;28;20203;-71
2022/04/18 04:12:03;;;;;;;1.80;1.70;;;20.00;50.10;;;;;;4998933;28;20667;-71
2022/04/18 04:14:36;;;;;;;2.85;1.90;;;20.00;50.00;;;;;;5014292;28;20198;-71
2022/04/18 04:17:02;;;;;;;1.40;1.30;;;20.00;50.00;;;;;;5014943;28;20203;-72
2022/04/18 04:19:28;;;;;;;1.58;1.45;;;20.00;50.10;;;;;;4982456;28;20195;-72
2022/04/18 04:21:55;;;;;;;1.60;1.50;;;20.00;50.00;;;;;;5014527;28;20194;-71
2022/04/18 04:24:22;;;;;;;1.77;1.65;;;20.00;50.00;;;;;;5014960;28;20186;-71
2022/04/18 04:26:49;;;;;;;1.33;1.23;;;20.00;49.90;;;;;;5014953;28;20192;-71
2022/04/18 04:29:20;;;;;;;2.22;1.67;;;20.00;49.90;;;;;;5014766;28;20262;-72
2022/04/18 04:31:59;;;;;;;1.73;1.63;;;20.00;49.90;;;;;;5000295;28;20190;-71
2022/04/18 04:34:28;;;;;;;1.83;1.73;;;20.00;49.80;;;;;;5015223;28;20702;-71
2022/04/18 04:37:12;;;;;;;1.58;1.48;;;20.00;49.80;;;;;;5017562;28;20229;-71
2022/04/18 04:39:40;;;;;;;1.45;1.35;;;20.00;49.60;;;;;;5030683;28;20221;-71
2022/04/18 04:42:07;;;;;;;2.17;1.42;;;20.00;49.80;;;;;;5030952;28;20293;-71
2022/04/18 04:44:33;;;;;;;1.40;1.30;;;20.00;49.90;;;;;;4998397;28;20187;-71
2022/04/18 04:47:04;;;;;;;1.30;1.20;;;20.00;49.90;;;;;;5014221;28;20701;-72
2022/04/18 04:49:30;;;;;;;1.75;1.58;;;20.00;49.90;;;;;;5014501;28;20221;-71
2022/04/18 04:52:20;;;;;;;1.50;1.40;;;20.00;49.90;;;;;;5010331;28;20352;-71
2022/04/18 04:54:46;;;;;;;1.73;1.63;;;20.00;49.90;;;;;;5014483;28;20266;-71
2022/04/18 04:57:18;;;;;;;1.73;1.52;;;20.00;49.80;;;;;;5014651;28;20203;-71
2022/04/18 05:00:11;;;;;;;2.08;1.90;;;20.00;49.70;;;;;;5014919;28;20202;-71
2022/04/18 05:03:03;;;;;;;1.85;1.35;;;20.00;49.50;;;;;;5001464;28;20183;-71
2022/04/18 05:05:30;;;;;;;1.73;1.20;;;20.00;49.80;;;;;;4997817;28;20190;-72
2022/04/18 05:07:57;;;;;;;1.45;1.35;;;20.00;49.80;;;;;;5013977;28;20183;-71
2022/04/18 05:10:27;;;;;;;1.45;1.35;;;20.00;49.70;;;;;;5014669;28;20292;-71
2022/04/18 05:12:53;;;;;;;1.50;1.40;;;20.00;49.70;;;;;;5012470;28;20207;-71
2022/04/18 05:15:19;;;;;;;1.83;1.63;;;20.00;49.80;;;;;;5012528;28;20249;-71
2022/04/18 05:18:23;;;;;;;1.60;1.50;;;20.00;49.80;;;;;;4951003;28;20284;-71
2022/04/18 05:20:49;;;;;;;2.00;1.88;;;20.00;49.60;;;;;;4951544;29;20213;-71
2022/04/18 05:23:21;;;;;;;2.15;1.80;;;20.00;49.50;;;;;;4983245;28;20233;-71
2022/04/18 05:25:50;;;;;;;1.58;1.48;;;20.00;49.50;;;;;;5014192;28;20209;-71
2022/04/18 05:28:16;;;;;;;1.75;1.65;;;20.00;49.50;;;;;;5034832;28;20294;-71
2022/04/18 05:30:48;;;;;;;1.73;1.52;;;20.00;49.50;;;;;;5017973;28;20314;-71
2022/04/18 05:33:14;;;;;;;1.50;1.40;;;20.00;49.40;;;;;;5018036;28;20262;-71
2022/04/18 05:35:59;;;;;;;1.40;1.30;;;20.00;49.60;;;;;;5033965;28;20301;-71
2022/04/18 05:38:32;;;;;;;1.60;1.50;;;20.00;49.60;;;;;;5018121;28;20183;-71
2022/04/18 05:41:02;;;;;;;1.60;1.50;;;20.00;49.60;;;;;;5020473;28;20195;-71
2022/04/18 05:43:29;;;;;;;2.28;1.55;;;19.90;49.60;;;;;;5018404;28;20175;-71
2022/04/18 05:45:54;;;;;;;1.73;1.58;;;20.00;49.60;;;;;;5034249;28;20206;-71
2022/04/18 05:48:21;;;;;;;1.60;1.40;;;20.00;49.60;;;;;;4998411;28;20231;-71
2022/04/18 05:50:50;;;;;;;1.83;1.73;;;20.00;49.50;;;;;;5008320;28;20216;-72
2022/04/18 05:53:27;;;;;;;1.60;1.50;;;20.00;49.50;;;;;;5010464;28;20237;-71
2022/04/18 05:56:05;;;;;;;2.00;1.80;;;20.00;49.40;;;;;;5017014;28;20289;-71
2022/04/18 05:58:42;;;;;;;2.17;2.00;;;20.00;49.30;;;;;;5017779;28;20179;-72
2022/04/18 06:01:28;;;;;;;2.20;1.60;;;20.00;49.20;;;;;;5029676;28;20237;-72
2022/04/18 06:03:55;;;;;;;2.20;1.60;;;20.00;49.20;;;;;;5017415;28;20196;-71
2022/04/18 06:06:21;;;;;;;1.90;1.58;;;20.00;49.30;;;;;;5017070;28;20242;-71
2022/04/18 06:08:48;;;;;;;1.70;1.60;;;20.00;49.40;;;;;;5017577;28;20253;-72
2022/04/18 06:11:20;;;;;;;1.70;1.60;;;20.10;49.40;;;;;;5016950;28;20207;-70
2022/04/18 06:13:56;;;;;;;1.50;1.40;;;20.10;49.50;;;;;;5034148;28;20191;-71
2022/04/18 06:16:23;;;;;;;1.60;1.50;;;20.10;49.40;;;;;;5016964;28;20230;-71
2022/04/18 06:18:49;;;;;;;1.92;1.52;;;20.10;49.40;;;;;;5001179;28;20188;-71
2022/04/18 06:21:15;;;;;;;2.28;2.00;;;20.10;49.30;;;;;;5016897;28;20187;-72
2022/04/18 06:23:43;;;;;;;2.08;1.55;;;20.10;49.20;;;;;;5025156;28;20219;-72
2022/04/18 06:26:26;;;;;;;1.63;1.52;;;20.10;49.20;;;;;;5016947;28;20203;-71
2022/04/18 06:28:54;;;;;;;1.98;1.80;;;20.10;49.20;;;;;;5015297;28;20274;-73
2022/04/18 06:31:20;;;;;;;1.92;1.83;;;20.10;49.00;;;;;;5016744;28;20302;-72
2022/04/18 06:34:06;;;;;;;1.67;1.58;;;20.10;49.10;;;;;;5018576;28;20203;-71
2022/04/18 06:36:34;;;;;;;1.25;1.20;;;20.10;49.20;;;;;;5016856;28;20215;-71
2022/04/18 06:39:22;;;;;;;1.55;1.45;;;20.10;49.10;;;;;;5019254;28;20195;-72
2022/04/18 06:41:57;;;;;;;2.55;1.42;;;20.10;49.10;;;;;;5016302;28;20184;-72
2022/04/18 06:44:25;;;;;;;1.63;1.52;;;20.10;49.70;;;;;;5033402;28;20194;-72
2022/04/18 06:46:53;;;;;;;2.13;1.40;;;20.20;49.20;;;;;;4996165;28;20200;-71
2022/04/18 06:49:47;;;;;;;2.03;1.83;;;20.20;49.10;;;;;;4984919;28;20249;-72
2022/04/18 06:52:40;;;;;;;1.83;1.67;;;20.20;49.10;;;;;;5034540;28;20222;-71
2022/04/18 06:55:26;;;;;;;1.60;1.50;;;20.30;49.00;;;;;;4999466;28;20190;-71
2022/04/18 06:57:52;;;;;;;1.77;1.60;;;20.30;49.20;;;;;;4999786;28;20260;-71
2022/04/18 07:00:18;;;;;;;1.75;1.50;;;20.30;48.90;;;;;;5016468;28;20184;-70
2022/04/18 07:02:46;;;;;;;2.00;1.90;;;20.30;48.90;;;;;;5016425;28;20187;-72
2022/04/18 07:05:12;;;;;;;1.58;1.48;;;20.40;49.00;;;;;;4999460;28;20210;-71
2022/04/18 07:07:38;;;;;;;1.80;1.40;;;20.40;49.00;;;;;;4999729;28;20271;-71
2022/04/18 07:10:05;;;;;;;2.58;1.90;;;20.40;48.80;;;;;;4999435;28;20223;-70
2022/04/18 07:12:31;;;;;;;2.08;1.90;;;20.40;48.80;;;;;;5012412;28;20180;-71
2022/04/18 07:14:59;;;;;;;1.63;1.52;;;20.40;48.80;;;;;;4999611;28;20225;-71
2022/04/18 07:17:26;;;;;;;1.63;1.50;;;20.40;48.80;;;;;;5032491;28;20230;-71
2022/04/18 07:19:53;;;;;;;2.80;1.75;;;20.50;48.80;;;;;;5000133;28;20184;-70
2022/04/18 07:22:23;;;;;;;1.80;1.70;;;20.50;48.90;;;;;;5016177;28;20191;-71
2022/04/18 07:24:52;;;;;;;4.25;1.70;;;20.50;48.90;;;;;;5030961;28;20225;-70
2022/04/18 07:27:20;;;;;;;1.60;1.50;;;20.50;48.70;;;;;;5032281;28;20261;-71
2022/04/18 07:29:55;;;;;;;1.73;1.60;;;20.50;48.70;;;;;;5000385;28;20219;-73
2022/04/18 07:32:21;;;;;;;2.15;1.80;;;20.50;48.70;;;;;;5016159;28;20613;-71
2022/04/18 07:34:47;;;;;;;1.80;1.70;;;20.60;48.60;;;;;;4999522;28;20183;-71
2022/04/18 07:37:22;;;;;;;2.17;1.55;;;20.60;48.60;;;;;;5015695;28;20214;-71
2022/04/18 07:39:49;;;;;;;2.15;1.88;;;20.60;48.60;;;;;;5013954;28;20224;-71
2022/04/18 07:42:15;;;;;;;1.77;1.67;;;20.60;48.60;;;;;;5031495;28;20195;-71
2022/04/18 07:44:41;;;;;;;2.05;1.70;;;20.60;48.60;;;;;;5015423;28;20555;-71
2022/04/18 07:47:08;;;;;;;2.58;1.73;;;20.60;48.60;;;;;;5015779;28;20597;-71
2022/04/18 07:49:35;;;;;;;2.15;1.95;;;20.70;48.70;;;;;;5015480;28;20213;-71
2022/04/18 07:52:01;;;;;;;1.55;1.45;;;20.60;48.70;;;;;;5032252;28;20258;-71
2022/04/18 07:54:36;;;;;;;3.05;1.80;;;20.70;48.60;;;;;;5015658;28;20297;-73
2022/04/18 07:57:02;;;;;;;3.08;1.90;;;20.70;48.70;;;;;;5014471;28;20296;-71
2022/04/18 07:59:37;;;;;;;2.47;1.95;;;20.70;48.70;;;;;;5015507;28;20194;-71
2022/04/18 08:02:08;;;;;;;1.95;1.75;;;20.70;48.70;;;;;;5031927;28;20595;-71
2022/04/18 08:05:03;;;;;;;2.10;1.83;;;20.70;48.60;;;;;;4996114;28;20224;-71
2022/04/18 08:07:52;;;;;;;2.15;1.90;;;20.70;48.60;;;;;;4990164;28;20355;-72
2022/04/18 08:10:19;;;;;;;2.08;1.60;;;20.70;48.50;;;;;;4985271;28;20212;-72
2022/04/18 08:12:44;;;;;;;1.95;1.50;;;20.70;48.50;;;;;;5012932;28;20187;-71
2022/04/18 08:15:30;;;;;;;1.92;1.70;;;20.70;48.70;;;;;;5031463;28;20222;-71
2022/04/18 08:17:57;;;;;;;1.90;1.80;;;20.70;48.40;;;;;;5011655;28;20183;-72
2022/04/18 08:20:42;;;;;;;1.80;1.70;;;20.70;48.40;;;;;;5011805;28;20191;-72
2022/04/18 08:23:08;;;;;;;1.85;1.73;;;20.80;48.40;;;;;;5013475;28;20202;-72
2022/04/18 08:25:52;;;;;;;2.55;1.70;;;20.70;48.30;;;;;;5017703;28;20318;-72
2022/04/18 08:28:43;;;;;;;1.75;1.65;;;20.80;48.50;;;;;;5030242;28;20198;-71
2022/04/18 08:31:10;;;;;;;2.90;1.80;;;20.80;48.50;;;;;;5031383;28;20269;-71
2022/04/18 08:33:56;;;;;;;1.83;1.73;;;20.80;48.30;;;;;;5016828;28;20191;-71
2022/04/18 08:36:21;;;;;;;2.60;1.80;;;20.80;48.40;;;;;;5012082;28;20233;-70
2022/04/18 08:38:48;;;;;;;1.52;1.42;;;20.80;48.30;;;;;;4998453;28;20188;-71
2022/04/18 08:41:38;;;;;;;2.63;1.88;;;20.80;48.30;;;;;;5000267;28;20193;-71
2022/04/18 08:44:09;;;;;;;1.92;1.70;;;20.80;48.20;;;;;;5014682;28;20745;-71
2022/04/18 08:46:36;;;;;;;1.75;1.65;;;20.80;48.30;;;;;;5014756;28;20218;-71
2022/04/18 08:54:39;;;;;;;2.05;1.67;;;20.80;48.20;;;;;;5033893;28;20186;-71
2022/04/18 08:57:07;;;;;;;1.60;1.50;;;20.80;48.30;;;;;;5033948;28;20289;-71
2022/04/18 08:59:33;;;;;;;2.65;1.90;;;20.80;48.20;;;;;;5051082;28;20274;-71
2022/04/18 09:02:02;;;;;;;1.83;1.67;;;20.80;48.20;;;;;;5021077;28;20198;-71
2022/04/18 09:04:46;;;;;;;2.13;1.63;;;20.80;48.30;;;;;;5011016;28;20195;-71
2022/04/18 09:07:14;;;;;;;2.25;1.60;;;20.80;48.20;;;;;;5010707;28;20222;-71
2022/04/18 09:09:48;;;;;;;1.92;1.75;;;20.80;48.30;;;;;;5011286;28;20222;-71
2022/04/18 09:12:27;;;;;;;1.70;1.60;;;20.80;48.20;;;;;;5010685;28;20190;-73
2022/04/18 09:15:12;;;;;;;1.65;1.35;;;20.80;48.20;;;;;;5013863;28;20238;-72
2022/04/18 09:17:40;;;;;;;2.00;1.80;;;20.80;48.30;;;;;;5010140;28;20183;-73
2022/04/18 09:20:18;;;;;;;1.70;1.60;;;20.80;48.40;;;;;;5028975;28;20281;-71
2022/04/18 09:22:48;;;;;;;2.88;1.80;;;20.80;48.40;;;;;;4994576;28;20187;-70
2022/04/18 09:25:20;;;;;;;3.50;1.67;;;20.80;48.40;;;;;;4994323;28;20726;-70
2022/04/18 09:27:53;;;;;;;1.75;1.63;;;20.80;48.80;;;;;;5027018;28;20183;-70
2022/04/18 09:30:23;;;;;;;2.78;1.77;;;20.80;48.70;;;;;;5011208;28;20253;-70
2022/04/18 09:33:04;;;;;;;3.25;1.45;;;20.80;48.60;;;;;;5009857;28;20677;-70
2022/04/18 09:35:38;;;;;;;2.85;1.52;;;20.80;48.70;;;;;;4991996;28;20211;-71
2022/04/18 09:38:11;;;;;;;2.33;1.60;;;20.80;48.70;;;;;;4990052;28;20666;-72
2022/04/18 09:40:59;;;;;;;2.00;1.60;;;20.80;48.70;;;;;;5026874;28;20255;-72
2022/04/18 09:43:45;;;;;;;2.42;1.55;;;20.80;48.70;;;;;;5009647;28;20187;-70
2022/04/18 09:46:16;;;;;;;1.67;1.58;;;20.80;48.80;;;;;;5010364;28;20207;-72
2022/04/18 09:48:50;;;;;;;1.75;1.65;;;20.80;48.70;;;;;;5011811;28;20175;-69
2022/04/18 09:51:29;;;;;;;2.53;1.65;;;20.80;48.50;;;;;;5044771;28;20243;-71
2022/04/18 09:54:07;;;;;;;3.17;1.60;;;20.80;48.50;;;;;;5044689;28;20179;-71
2022/04/18 09:56:33;;;;;;;2.47;1.60;;;20.80;48.50;;;;;;5044709;28;20214;-70
2022/04/18 09:59:01;;;;;;;1.83;1.65;;;20.80;48.70;;;;;;5044953;28;20278;-71
2022/04/18 10:01:28;;;;;;;3.17;1.70;;;20.80;48.50;;;;;;5030039;28;20188;-71
2022/04/18 10:03:54;;;;;;;1.85;1.63;;;20.80;48.50;;;;;;5029679;28;20334;-71
2022/04/18 10:06:20;;;;;;;1.67;1.55;;;20.80;48.50;;;;;;5075216;22;20220;-69
2022/04/18 10:08:46;;;;;;;3.38;1.73;;;20.70;48.50;;;;;;4974958;28;20227;-68
2022/04/18 10:11:12;;;;;;;1.67;1.58;;;20.80;48.50;;;;;;5009492;28;20246;-69
2022/04/18 10:13:38;;;;;;;2.58;1.67;;;20.70;48.50;;;;;;4995498;28;20192;-69
2022/04/18 10:16:06;;;;;;;3.00;1.60;;;20.80;48.40;;;;;;4994782;28;20191;-69
2022/04/18 10:18:45;;;;;;;1.50;1.40;;;20.80;48.50;;;;;;4993567;28;20219;-69
2022/04/18 10:21:30;;;;;;;1.83;1.70;;;20.70;48.40;;;;;;4960388;28;20184;-68
2022/04/18 10:24:17;;;;;;;1.65;1.45;;;20.80;48.50;;;;;;4992559;28;20630;-69
2022/04/18 10:27:04;;;;;;;1.88;1.70;;;20.80;48.50;;;;;;4976401;28;20216;-69
2022/04/18 10:29:38;;;;;;;2.00;1.60;;;20.80;48.30;;;;;;4959991;28;20271;-69
2022/04/18 10:32:07;;;;;;;1.73;1.63;;;20.80;48.30;;;;;;4992737;28;20669;-69
2022/04/18 10:34:35;;;;;;;2.17;1.40;;;20.80;48.40;;;;;;4988978;28;20184;-69
2022/04/18 10:37:03;;;;;;;3.03;1.70;;;20.80;48.40;;;;;;4995192;28;20204;-69
2022/04/18 10:39:38;;;;;;;3.95;1.90;;;20.70;48.40;;;;;;4979236;28;20257;-69
2022/04/18 10:42:29;;;;;;;2.00;1.50;;;20.80;48.50;;;;;;4995375;28;20249;-69
2022/04/18 10:45:17;;;;;;;2.38;1.58;;;20.80;48.40;;;;;;4995232;28;20199;-69
2022/04/18 10:47:58;;;;;;;2.80;1.90;;;20.80;48.30;;;;;;4981026;28;20758;-69
2022/04/18 10:50:32;;;;;;;1.75;1.65;;;20.70;48.10;;;;;;4997196;28;20250;-69
2022/04/18 10:53:18;;;;;;;2.88;1.50;;;20.80;48.30;;;;;;4981401;28;20275;-69
2022/04/18 10:55:56;;;;;;;2.30;1.67;;;20.80;48.40;;;;;;4997574;28;20184;-68
2022/04/18 10:58:28;;;;;;;1.88;1.50;;;20.80;48.40;;;;;;5014376;28;20212;-69
2022/04/18 11:01:00;;;;;;;2.17;1.60;;;20.70;48.40;;;;;;5014894;28;20175;-68
2022/04/18 11:03:38;;;;;;;4.82;1.88;;;20.80;48.30;;;;;;5013539;28;20180;-68
2022/04/18 11:06:16;;;;;;;2.60;1.88;;;20.80;48.20;;;;;;4997282;28;20180;-68
2022/04/18 11:08:57;;;;;;;1.70;1.60;;;20.80;48.20;;;;;;4997223;28;20184;-68
2022/04/18 11:11:23;;;;;;;2.08;1.60;;;20.80;48.20;;;;;;4997035;28;20223;-68
2022/04/18 11:13:50;;;;;;;1.55;1.45;;;20.80;48.40;;;;;;4997245;28;20275;-68
2022/04/18 11:16:22;;;;;;;3.25;1.60;;;20.80;48.60;;;;;;4996733;28;20639;-69
2022/04/18 11:19:13;;;;;;;2.97;1.42;;;20.80;48.40;;;;;;4996962;28;20199;-69
2022/04/18 11:21:57;;;;;;;2.33;1.35;;;20.80;48.40;;;;;;5014476;28;20168;-68
2022/04/18 11:24:49;;;;;;;2.80;1.65;;;20.80;48.30;;;;;;4996352;28;20192;-68
2022/04/18 11:27:36;;;;;;;1.55;1.42;;;20.80;48.30;;;;;;5014195;28;20299;-68
2022/04/18 11:30:13;;;;;;;2.63;1.77;;;20.80;47.80;;;;;;5004425;28;20240;-68
2022/04/18 11:32:45;;;;;;;3.38;1.58;;;20.80;47.90;;;;;;4977494;28;20239;-69
2022/04/18 11:35:13;;;;;;;2.00;1.38;;;20.80;48.80;;;;;;4999861;28;20176;-69
2022/04/18 11:37:43;;;;;;;2.47;1.58;;;20.80;48.70;;;;;;5010142;28;20212;-68
2022/04/18 11:40:16;;;;;;;3.60;1.50;;;20.80;48.60;;;;;;5013233;28;20187;-68
2022/04/18 11:42:43;;;;;;;5.57;1.80;;;20.80;48.70;;;;;;4998217;28;20183;-68
2022/04/18 11:45:20;;;;;;;2.25;1.35;;;20.80;48.20;;;;;;4981419;28;20195;-69
2022/04/18 11:47:47;;;;;;;1.95;1.45;;;20.80;48.00;;;;;;4996611;28;20211;-69
2022/04/18 11:50:23;;;;;;;2.63;1.67;;;20.80;48.30;;;;;;4996311;28;20204;-70
2022/04/18 11:53:01;;;;;;;2.60;1.52;;;20.80;48.00;;;;;;4996688;28;20274;-69
2022/04/18 11:55:28;;;;;;;2.08;1.63;;;20.80;47.80;;;;;;4980313;28;20195;-70
2022/04/18 11:57:54;;;;;;;2.42;1.38;;;20.80;48.20;;;;;;4996300;28;20243;-69
2022/04/18 12:08:47;;;;;;;2.15;1.60;;;20.80;47.90;;;;;;4995833;28;20186;-69
2022/04/18 12:11:13;;;;;;;2.33;1.73;;;20.80;48.00;;;;;;4993462;28;20219;-69
2022/04/18 12:13:48;;;;;;;1.58;1.48;;;20.80;47.90;;;;;;4976929;28;20189;-69
2022/04/18 12:16:18;;;;;;;3.20;1.70;;;20.80;47.70;;;;;;4960605;28;20199;-68
2022/04/18 12:18:45;;;;;;;1.77;1.40;;;20.80;48.00;;;;;;4992611;28;20185;-68
2022/04/18 12:21:15;;;;;;;1.92;1.58;;;20.80;47.80;;;;;;4976562;28;20181;-69
2022/04/18 12:23:41;;;;;;;2.22;1.50;;;20.80;47.60;;;;;;4976284;28;20185;-69
2022/04/18 12:26:12;;;;;;;3.42;1.65;;;20.80;47.70;;;;;;4992584;28;20255;-69
2022/04/18 12:28:38;;;;;;;4.40;1.73;;;20.80;47.80;;;;;;4975909;28;20204;-69
2022/04/18 12:31:11;;;;;;;3.13;1.70;;;20.80;48.60;;;;;;4992572;28;20220;-69
2022/04/18 12:33:49;;;;;;;2.03;1.58;;;20.80;48.40;;;;;;4976623;28;20553;-69
2022/04/18 12:36:33;;;;;;;1.95;1.45;;;20.80;47.90;;;;;;4991404;28;20181;-69
2022/04/18 12:39:00;;;;;;;1.70;1.33;;;20.80;47.90;;;;;;4976136;28;20184;-69
2022/04/18 12:41:35;;;;;;;2.53;1.60;;;20.80;48.00;;;;;;4976099;28;20208;-69
2022/04/18 12:44:10;;;;;;;1.85;1.67;;;20.80;47.90;;;;;;4966845;28;20208;-69
2022/04/18 12:46:35;;;;;;;2.25;1.50;;;20.80;47.80;;;;;;4972740;28;20684;-69
2022/04/18 12:49:08;;;;;;;2.00;1.50;;;20.80;48.30;;;;;;4973028;28;20196;-69
2022/04/18 12:51:38;;;;;;;2.13;1.42;;;20.80;48.00;;;;;;4956256;28;20217;-69
2022/04/18 12:54:26;;;;;;;1.83;1.35;;;20.80;47.80;;;;;;4972513;28;20204;-69
2022/04/18 12:56:52;;;;;;;1.75;1.60;;;20.80;48.00;;;;;;4956577;28;20292;-69
2022/04/18 12:59:27;;;;;;;1.70;1.60;;;20.80;47.90;;;;;;4940835;28;20613;-69
2022/04/18 13:02:08;;;;;;;2.05;1.50;;;20.80;48.10;;;;;;4956373;28;20248;-69
2022/04/18 13:04:34;;;;;;;1.60;1.50;;;20.80;47.90;;;;;;4956618;28;20201;-69
2022/04/18 13:07:06;;;;;;;2.53;1.60;;;20.80;48.00;;;;;;4956145;28;20264;-69
2022/04/18 13:09:33;;;;;;;3.47;1.73;;;20.80;47.80;;;;;;4973485;28;20232;-69
2022/04/18 13:12:08;;;;;;;2.53;1.40;;;20.80;48.00;;;;;;4956440;28;20186;-69
2022/04/18 13:14:59;;;;;;;1.40;1.30;;;20.80;47.90;;;;;;4978275;28;20184;-69
2022/04/18 13:17:25;;;;;;;1.75;1.60;;;20.80;47.80;;;;;;4995991;28;20200;-69
2022/04/18 13:19:51;;;;;;;2.58;1.55;;;20.80;47.80;;;;;;4978759;28;20188;-69
2022/04/18 13:22:16;;;;;;;2.28;1.80;;;20.80;47.80;;;;;;5010839;28;20239;-69
2022/04/18 13:24:42;;;;;;;2.05;1.80;;;20.80;48.80;;;;;;4977715;28;20173;-69
2022/04/18 13:27:25;;;;;;;2.28;1.60;;;20.80;47.90;;;;;;4994633;28;20592;-69
2022/04/18 13:29:51;;;;;;;1.58;1.40;;;20.80;47.70;;;;;;4994874;28;20199;-69
2022/04/18 13:32:17;;;;;;;2.58;1.58;;;20.80;47.90;;;;;;4994799;28;20184;-69
2022/04/18 13:34:43;;;;;;;1.63;1.45;;;20.80;48.00;;;;;;4974788;28;20189;-69
2022/04/18 13:37:11;;;;;;;1.73;1.30;;;20.80;48.10;;;;;;4955821;28;20205;-69